New Caney, Texas
Current Conditions -  °F | °C
As of 10:15 AM on Monday 22 Dec 2014 (Local Time) from KIAH Reporting Station
Broken Clouds Broken Clouds  
Wind Chill: 66°   Ceiling: 1500
Heat Index: 66°   Visibility: 10mi
Dew Point: 61°   Wind: 13mph
Humidity: 83%   Direction: 220°SW
Pressure: 29.75"   Gusts: 22mph
Location:  30.16°N, 95.21°W
Report Text: KIAH 221615Z 22011G19KT 10SM BKN015 BKN250 19/16 A2975 RMK AO2
Loading
Personal Weather Stations






























Interactive Weather Map New forecast layout! Learn more

10-Day Weather Forecast

Advertisements
Track Severe Weather on mobile